sensor_id;sensor_type;location;lat;lon;timestamp;P1;durP1;ratioP1;P2;durP2;ratioP2
22973;SDS011;11653;50.848;4.584;2024-03-06T00:02:22;10.97;;;8.47;;
22973;SDS011;11653;50.848;4.584;2024-03-06T00:04:48;11.83;;;8.13;;
22973;SDS011;11653;50.848;4.584;2024-03-06T00:07:14;12.47;;;8.27;;
22973;SDS011;11653;50.848;4.584;2024-03-06T00:09:40;10.43;;;8.23;;
22973;SDS011;11653;50.848;4.584;2024-03-06T00:12:05;13.57;;;9.00;;
22973;SDS011;11653;50.848;4.584;2024-03-06T00:14:31;11.33;;;8.87;;
22973;SDS011;11653;50.848;4.584;2024-03-06T00:16:57;12.07;;;9.13;;
22973;SDS011;11653;50.848;4.584;2024-03-06T00:19:22;13.87;;;9.70;;
22973;SDS011;11653;50.848;4.584;2024-03-06T00:21:48;12.10;;;9.77;;
22973;SDS011;11653;50.848;4.584;2024-03-06T00:24:14;12.80;;;10.13;;
22973;SDS011;11653;50.848;4.584;2024-03-06T00:26:41;12.63;;;8.90;;
22973;SDS011;11653;50.848;4.584;2024-03-06T00:29:08;14.87;;;10.23;;
22973;SDS011;11653;50.848;4.584;2024-03-06T00:31:34;14.97;;;9.57;;
22973;SDS011;11653;50.848;4.584;2024-03-06T00:34:01;14.13;;;9.87;;
22973;SDS011;11653;50.848;4.584;2024-03-06T00:36:27;16.13;;;10.07;;
22973;SDS011;11653;50.848;4.584;2024-03-06T00:38:53;13.50;;;9.87;;
22973;SDS011;11653;50.848;4.584;2024-03-06T00:41:18;10.40;;;9.17;;
22973;SDS011;11653;50.848;4.584;2024-03-06T00:43:44;13.50;;;10.00;;
22973;SDS011;11653;50.848;4.584;2024-03-06T00:46:10;12.47;;;9.67;;
22973;SDS011;11653;50.848;4.584;2024-03-06T00:48:36;16.50;;;9.90;;
22973;SDS011;11653;50.848;4.584;2024-03-06T00:51:04;12.37;;;10.03;;
22973;SDS011;11653;50.848;4.584;2024-03-06T00:53:31;16.30;;;10.27;;
22973;SDS011;11653;50.848;4.584;2024-03-06T00:55:57;13.07;;;10.37;;
22973;SDS011;11653;50.848;4.584;2024-03-06T00:58:23;14.70;;;10.07;;
22973;SDS011;11653;50.848;4.584;2024-03-06T01:00:48;13.63;;;10.30;;
22973;SDS011;11653;50.848;4.584;2024-03-06T01:03:14;12.50;;;10.37;;
22973;SDS011;11653;50.848;4.584;2024-03-06T01:05:40;13.67;;;10.10;;
22973;SDS011;11653;50.848;4.584;2024-03-06T01:08:07;12.17;;;9.47;;
22973;SDS011;11653;50.848;4.584;2024-03-06T01:10:32;14.13;;;10.00;;
22973;SDS011;11653;50.848;4.584;2024-03-06T01:12:58;12.10;;;9.20;;
22973;SDS011;11653;50.848;4.584;2024-03-06T01:15:24;12.27;;;9.33;;
22973;SDS011;11653;50.848;4.584;2024-03-06T01:17:50;14.50;;;9.40;;
22973;SDS011;11653;50.848;4.584;2024-03-06T01:20:15;13.47;;;9.50;;
22973;SDS011;11653;50.848;4.584;2024-03-06T01:22:41;11.30;;;9.27;;
22973;SDS011;11653;50.848;4.584;2024-03-06T01:25:07;12.87;;;8.70;;
22973;SDS011;11653;50.848;4.584;2024-03-06T01:27:33;15.07;;;10.07;;
22973;SDS011;11653;50.848;4.584;2024-03-06T01:29:59;13.73;;;9.77;;
22973;SDS011;11653;50.848;4.584;2024-03-06T01:32:24;14.93;;;9.90;;
22973;SDS011;11653;50.848;4.584;2024-03-06T01:34:50;13.13;;;10.43;;
22973;SDS011;11653;50.848;4.584;2024-03-06T01:37:16;15.50;;;10.27;;
22973;SDS011;11653;50.848;4.584;2024-03-06T01:39:41;15.30;;;10.43;;
22973;SDS011;11653;50.848;4.584;2024-03-06T01:42:07;15.80;;;10.00;;
22973;SDS011;11653;50.848;4.584;2024-03-06T01:44:33;12.70;;;9.63;;
22973;SDS011;11653;50.848;4.584;2024-03-06T01:46:58;17.80;;;10.00;;
22973;SDS011;11653;50.848;4.584;2024-03-06T01:49:24;15.63;;;10.73;;
22973;SDS011;11653;50.848;4.584;2024-03-06T01:51:52;14.60;;;9.70;;
22973;SDS011;11653;50.848;4.584;2024-03-06T01:54:20;14.43;;;10.67;;
22973;SDS011;11653;50.848;4.584;2024-03-06T01:56:47;13.37;;;10.07;;
22973;SDS011;11653;50.848;4.584;2024-03-06T01:59:15;13.63;;;10.00;;
22973;SDS011;11653;50.848;4.584;2024-03-06T02:01:41;14.93;;;10.43;;
22973;SDS011;11653;50.848;4.584;2024-03-06T02:04:08;14.63;;;9.97;;
22973;SDS011;11653;50.848;4.584;2024-03-06T02:06:40;15.30;;;10.13;;
22973;SDS011;11653;50.848;4.584;2024-03-06T02:09:07;16.33;;;10.37;;
22973;SDS011;11653;50.848;4.584;2024-03-06T02:11:34;14.33;;;10.03;;
22973;SDS011;11653;50.848;4.584;2024-03-06T02:14:01;14.20;;;10.30;;
22973;SDS011;11653;50.848;4.584;2024-03-06T02:16:28;14.27;;;9.97;;
22973;SDS011;11653;50.848;4.584;2024-03-06T02:18:54;15.90;;;10.67;;
22973;SDS011;11653;50.848;4.584;2024-03-06T02:21:21;14.77;;;10.63;;
22973;SDS011;11653;50.848;4.584;2024-03-06T02:23:48;15.60;;;10.03;;
22973;SDS011;11653;50.848;4.584;2024-03-06T02:26:14;15.93;;;11.10;;
22973;SDS011;11653;50.848;4.584;2024-03-06T02:28:46;18.33;;;11.43;;
22973;SDS011;11653;50.848;4.584;2024-03-06T02:31:19;18.23;;;9.67;;
22973;SDS011;11653;50.848;4.584;2024-03-06T02:33:46;16.77;;;10.73;;
22973;SDS011;11653;50.848;4.584;2024-03-06T02:36:13;13.50;;;9.90;;
22973;SDS011;11653;50.848;4.584;2024-03-06T02:38:39;17.67;;;11.20;;
22973;SDS011;11653;50.848;4.584;2024-03-06T02:41:05;16.13;;;11.13;;
22973;SDS011;11653;50.848;4.584;2024-03-06T02:43:32;15.87;;;11.00;;
22973;SDS011;11653;50.848;4.584;2024-03-06T02:45:59;19.13;;;11.97;;
22973;SDS011;11653;50.848;4.584;2024-03-06T02:48:25;14.73;;;10.90;;
22973;SDS011;11653;50.848;4.584;2024-03-06T02:50:51;16.37;;;11.13;;
22973;SDS011;11653;50.848;4.584;2024-03-06T02:53:18;18.53;;;11.30;;
22973;SDS011;11653;50.848;4.584;2024-03-06T02:55:44;19.37;;;11.73;;
22973;SDS011;11653;50.848;4.584;2024-03-06T02:58:09;15.53;;;10.47;;
22973;SDS011;11653;50.848;4.584;2024-03-06T03:00:35;16.10;;;11.30;;
22973;SDS011;11653;50.848;4.584;2024-03-06T03:03:01;13.73;;;10.77;;
22973;SDS011;11653;50.848;4.584;2024-03-06T03:05:27;14.87;;;11.00;;
22973;SDS011;11653;50.848;4.584;2024-03-06T03:07:53;15.73;;;10.27;;
22973;SDS011;11653;50.848;4.584;2024-03-06T03:10:20;18.57;;;11.30;;
22973;SDS011;11653;50.848;4.584;2024-03-06T03:12:45;16.87;;;9.90;;
22973;SDS011;11653;50.848;4.584;2024-03-06T03:15:11;18.23;;;11.53;;
22973;SDS011;11653;50.848;4.584;2024-03-06T03:17:37;15.07;;;10.13;;
22973;SDS011;11653;50.848;4.584;2024-03-06T03:20:02;16.97;;;11.40;;
22973;SDS011;11653;50.848;4.584;2024-03-06T03:22:38;15.97;;;11.03;;
22973;SDS011;11653;50.848;4.584;2024-03-06T03:25:07;20.03;;;12.43;;
22973;SDS011;11653;50.848;4.584;2024-03-06T03:27:37;16.83;;;11.20;;
22973;SDS011;11653;50.848;4.584;2024-03-06T03:30:06;19.13;;;12.77;;
22973;SDS011;11653;50.848;4.584;2024-03-06T03:32:33;15.90;;;11.13;;
22973;SDS011;11653;50.848;4.584;2024-03-06T03:34:59;19.93;;;13.47;;
22973;SDS011;11653;50.848;4.584;2024-03-06T03:37:25;16.03;;;11.27;;
22973;SDS011;11653;50.848;4.584;2024-03-06T03:39:50;16.70;;;11.67;;
22973;SDS011;11653;50.848;4.584;2024-03-06T03:42:16;16.90;;;10.93;;
22973;SDS011;11653;50.848;4.584;2024-03-06T03:44:41;16.97;;;12.13;;
22973;SDS011;11653;50.848;4.584;2024-03-06T03:47:07;19.53;;;13.57;;
22973;SDS011;11653;50.848;4.584;2024-03-06T03:49:33;20.90;;;13.10;;
22973;SDS011;11653;50.848;4.584;2024-03-06T03:51:59;22.57;;;13.60;;
22973;SDS011;11653;50.848;4.584;2024-03-06T03:54:24;25.90;;;13.33;;
22973;SDS011;11653;50.848;4.584;2024-03-06T03:56:50;18.30;;;12.27;;
22973;SDS011;11653;50.848;4.584;2024-03-06T03:59:16;22.60;;;13.20;;
22973;SDS011;11653;50.848;4.584;2024-03-06T04:01:42;23.27;;;13.97;;
22973;SDS011;11653;50.848;4.584;2024-03-06T04:04:11;23.73;;;13.13;;
22973;SDS011;11653;50.848;4.584;2024-03-06T04:06:37;19.17;;;13.07;;
22973;SDS011;11653;50.848;4.584;2024-03-06T04:09:03;20.93;;;12.73;;
22973;SDS011;11653;50.848;4.584;2024-03-06T04:11:29;22.87;;;11.80;;
22973;SDS011;11653;50.848;4.584;2024-03-06T04:13:57;20.97;;;12.37;;
22973;SDS011;11653;50.848;4.584;2024-03-06T04:16:23;18.10;;;11.73;;
22973;SDS011;11653;50.848;4.584;2024-03-06T04:18:49;25.90;;;12.97;;
22973;SDS011;11653;50.848;4.584;2024-03-06T04:21:14;25.07;;;13.23;;
22973;SDS011;11653;50.848;4.584;2024-03-06T04:23:40;22.93;;;13.30;;
22973;SDS011;11653;50.848;4.584;2024-03-06T04:26:06;21.03;;;13.03;;
22973;SDS011;11653;50.848;4.584;2024-03-06T04:28:31;18.57;;;12.90;;
22973;SDS011;11653;50.848;4.584;2024-03-06T04:30:58;19.07;;;12.50;;
22973;SDS011;11653;50.848;4.584;2024-03-06T04:33:23;21.13;;;12.27;;
22973;SDS011;11653;50.848;4.584;2024-03-06T04:35:49;21.03;;;12.70;;
22973;SDS011;11653;50.848;4.584;2024-03-06T04:38:14;16.50;;;12.03;;
22973;SDS011;11653;50.848;4.584;2024-03-06T04:40:40;18.17;;;12.23;;
22973;SDS011;11653;50.848;4.584;2024-03-06T04:43:06;19.23;;;12.17;;
22973;SDS011;11653;50.848;4.584;2024-03-06T04:45:32;21.93;;;12.70;;
22973;SDS011;11653;50.848;4.584;2024-03-06T04:47:58;17.33;;;11.93;;
22973;SDS011;11653;50.848;4.584;2024-03-06T04:50:24;18.23;;;12.83;;
22973;SDS011;11653;50.848;4.584;2024-03-06T04:52:49;20.87;;;10.70;;
22973;SDS011;11653;50.848;4.584;2024-03-06T04:55:15;28.20;;;13.63;;
22973;SDS011;11653;50.848;4.584;2024-03-06T04:57:45;20.73;;;11.90;;
22973;SDS011;11653;50.848;4.584;2024-03-06T05:00:11;20.07;;;12.37;;
22973;SDS011;11653;50.848;4.584;2024-03-06T05:02:38;19.97;;;12.63;;
22973;SDS011;11653;50.848;4.584;2024-03-06T05:05:04;27.00;;;14.47;;
22973;SDS011;11653;50.848;4.584;2024-03-06T05:07:30;25.77;;;13.17;;
22973;SDS011;11653;50.848;4.584;2024-03-06T05:09:57;20.30;;;12.30;;
22973;SDS011;11653;50.848;4.584;2024-03-06T05:12:23;22.53;;;12.50;;
22973;SDS011;11653;50.848;4.584;2024-03-06T05:14:50;18.10;;;12.47;;
22973;SDS011;11653;50.848;4.584;2024-03-06T05:17:16;25.63;;;15.53;;
22973;SDS011;11653;50.848;4.584;2024-03-06T05:19:43;22.37;;;13.37;;
22973;SDS011;11653;50.848;4.584;2024-03-06T05:22:10;22.57;;;13.60;;
22973;SDS011;11653;50.848;4.584;2024-03-06T05:24:36;24.80;;;13.83;;
22973;SDS011;11653;50.848;4.584;2024-03-06T05:27:02;25.37;;;14.13;;
22973;SDS011;11653;50.848;4.584;2024-03-06T05:29:29;20.27;;;14.37;;
22973;SDS011;11653;50.848;4.584;2024-03-06T05:31:54;21.97;;;13.87;;
22973;SDS011;11653;50.848;4.584;2024-03-06T05:34:21;19.90;;;12.70;;
22973;SDS011;11653;50.848;4.584;2024-03-06T05:36:47;22.20;;;13.87;;
22973;SDS011;11653;50.848;4.584;2024-03-06T05:39:13;30.53;;;15.37;;
22973;SDS011;11653;50.848;4.584;2024-03-06T05:41:39;23.77;;;14.47;;
22973;SDS011;11653;50.848;4.584;2024-03-06T05:44:06;25.10;;;13.40;;
22973;SDS011;11653;50.848;4.584;2024-03-06T05:46:31;22.00;;;14.03;;
22973;SDS011;11653;50.848;4.584;2024-03-06T05:48:57;37.53;;;16.60;;
22973;SDS011;11653;50.848;4.584;2024-03-06T05:51:23;20.90;;;12.97;;
22973;SDS011;11653;50.848;4.584;2024-03-06T05:53:49;25.83;;;13.53;;
22973;SDS011;11653;50.848;4.584;2024-03-06T05:56:14;38.80;;;15.43;;
22973;SDS011;11653;50.848;4.584;2024-03-06T05:58:42;27.53;;;14.73;;
22973;SDS011;11653;50.848;4.584;2024-03-06T06:01:07;24.60;;;13.40;;
22973;SDS011;11653;50.848;4.584;2024-03-06T06:03:33;24.43;;;13.97;;
22973;SDS011;11653;50.848;4.584;2024-03-06T06:05:59;30.13;;;14.47;;
22973;SDS011;11653;50.848;4.584;2024-03-06T06:08:25;25.60;;;13.67;;
22973;SDS011;11653;50.848;4.584;2024-03-06T06:10:50;24.37;;;13.53;;
22973;SDS011;11653;50.848;4.584;2024-03-06T06:13:20;21.57;;;13.77;;
22973;SDS011;11653;50.848;4.584;2024-03-06T06:15:46;23.87;;;13.47;;
22973;SDS011;11653;50.848;4.584;2024-03-06T06:18:12;34.87;;;15.30;;
22973;SDS011;11653;50.848;4.584;2024-03-06T06:20:37;35.53;;;15.67;;
22973;SDS011;11653;50.848;4.584;2024-03-06T06:23:07;27.43;;;15.83;;
22973;SDS011;11653;50.848;4.584;2024-03-06T06:25:33;27.07;;;15.63;;
22973;SDS011;11653;50.848;4.584;2024-03-06T06:28:00;32.50;;;14.00;;
22973;SDS011;11653;50.848;4.584;2024-03-06T06:30:25;27.60;;;16.17;;
22973;SDS011;11653;50.848;4.584;2024-03-06T06:32:52;24.57;;;14.57;;
22973;SDS011;11653;50.848;4.584;2024-03-06T06:35:17;30.47;;;15.93;;
22973;SDS011;11653;50.848;4.584;2024-03-06T06:37:43;27.90;;;15.93;;
22973;SDS011;11653;50.848;4.584;2024-03-06T06:40:09;28.40;;;14.67;;
22973;SDS011;11653;50.848;4.584;2024-03-06T06:42:36;28.17;;;15.60;;
22973;SDS011;11653;50.848;4.584;2024-03-06T06:45:03;28.03;;;15.87;;
22973;SDS011;11653;50.848;4.584;2024-03-06T06:47:31;30.00;;;18.30;;
22973;SDS011;11653;50.848;4.584;2024-03-06T06:49:57;29.90;;;16.17;;
22973;SDS011;11653;50.848;4.584;2024-03-06T06:52:22;27.27;;;15.23;;
22973;SDS011;11653;50.848;4.584;2024-03-06T06:54:48;32.10;;;17.53;;
22973;SDS011;11653;50.848;4.584;2024-03-06T06:57:16;27.63;;;15.97;;
22973;SDS011;11653;50.848;4.584;2024-03-06T06:59:41;31.10;;;17.00;;
22973;SDS011;11653;50.848;4.584;2024-03-06T07:02:07;26.67;;;16.40;;
22973;SDS011;11653;50.848;4.584;2024-03-06T07:04:33;28.37;;;18.40;;
22973;SDS011;11653;50.848;4.584;2024-03-06T07:06:59;26.50;;;17.93;;
22973;SDS011;11653;50.848;4.584;2024-03-06T07:09:25;24.20;;;16.83;;
22973;SDS011;11653;50.848;4.584;2024-03-06T07:11:54;22.03;;;15.33;;
22973;SDS011;11653;50.848;4.584;2024-03-06T07:14:20;19.70;;;13.70;;
22973;SDS011;11653;50.848;4.584;2024-03-06T07:16:46;18.40;;;11.87;;
22973;SDS011;11653;50.848;4.584;2024-03-06T07:19:12;16.13;;;10.73;;
22973;SDS011;11653;50.848;4.584;2024-03-06T07:21:39;12.63;;;9.67;;
22973;SDS011;11653;50.848;4.584;2024-03-06T07:24:05;12.77;;;9.27;;
22973;SDS011;11653;50.848;4.584;2024-03-06T07:26:32;11.80;;;9.07;;
22973;SDS011;11653;50.848;4.584;2024-03-06T07:28:58;11.60;;;8.93;;
22973;SDS011;11653;50.848;4.584;2024-03-06T07:31:24;13.27;;;9.27;;
22973;SDS011;11653;50.848;4.584;2024-03-06T07:33:50;14.77;;;8.70;;
22973;SDS011;11653;50.848;4.584;2024-03-06T07:36:16;13.07;;;8.67;;
22973;SDS011;11653;50.848;4.584;2024-03-06T07:38:42;10.63;;;8.10;;
22973;SDS011;11653;50.848;4.584;2024-03-06T07:41:11;10.83;;;8.80;;
22973;SDS011;11653;50.848;4.584;2024-03-06T07:43:37;10.40;;;8.10;;
22973;SDS011;11653;50.848;4.584;2024-03-06T07:46:03;15.50;;;8.03;;
22973;SDS011;11653;50.848;4.584;2024-03-06T07:48:35;9.40;;;7.30;;
22973;SDS011;11653;50.848;4.584;2024-03-06T07:51:07;10.50;;;7.10;;
22973;SDS011;11653;50.848;4.584;2024-03-06T07:53:33;12.30;;;7.17;;
22973;SDS011;11653;50.848;4.584;2024-03-06T07:55:58;7.73;;;6.23;;
22973;SDS011;11653;50.848;4.584;2024-03-06T07:58:24;10.57;;;6.70;;
22973;SDS011;11653;50.848;4.584;2024-03-06T08:00:50;11.50;;;6.10;;
22973;SDS011;11653;50.848;4.584;2024-03-06T08:03:18;14.80;;;6.77;;
22973;SDS011;11653;50.848;4.584;2024-03-06T08:05:44;8.13;;;5.67;;
22973;SDS011;11653;50.848;4.584;2024-03-06T08:08:09;8.67;;;5.23;;
22973;SDS011;11653;50.848;4.584;2024-03-06T08:10:35;7.30;;;4.93;;
22973;SDS011;11653;50.848;4.584;2024-03-06T08:13:01;6.10;;;4.60;;
22973;SDS011;11653;50.848;4.584;2024-03-06T08:15:26;7.27;;;5.20;;
22973;SDS011;11653;50.848;4.584;2024-03-06T08:17:52;8.80;;;5.37;;
22973;SDS011;11653;50.848;4.584;2024-03-06T08:20:17;8.97;;;4.90;;
22973;SDS011;11653;50.848;4.584;2024-03-06T08:22:43;8.23;;;5.43;;
22973;SDS011;11653;50.848;4.584;2024-03-06T08:25:10;8.27;;;5.50;;
22973;SDS011;11653;50.848;4.584;2024-03-06T08:27:37;7.97;;;5.50;;
22973;SDS011;11653;50.848;4.584;2024-03-06T08:30:07;7.00;;;4.70;;
22973;SDS011;11653;50.848;4.584;2024-03-06T08:32:34;7.00;;;5.10;;
22973;SDS011;11653;50.848;4.584;2024-03-06T08:35:02;9.43;;;5.60;;
22973;SDS011;11653;50.848;4.584;2024-03-06T08:37:31;8.10;;;5.30;;
22973;SDS011;11653;50.848;4.584;2024-03-06T08:39:58;8.10;;;5.27;;
22973;SDS011;11653;50.848;4.584;2024-03-06T08:42:27;7.57;;;5.50;;
22973;SDS011;11653;50.848;4.584;2024-03-06T08:44:54;10.67;;;5.37;;
22973;SDS011;11653;50.848;4.584;2024-03-06T08:47:19;9.63;;;5.00;;
22973;SDS011;11653;50.848;4.584;2024-03-06T08:49:45;8.57;;;5.40;;
22973;SDS011;11653;50.848;4.584;2024-03-06T08:52:11;8.00;;;5.30;;
22973;SDS011;11653;50.848;4.584;2024-03-06T08:54:36;10.57;;;5.20;;
22973;SDS011;11653;50.848;4.584;2024-03-06T08:57:03;8.00;;;4.47;;
22973;SDS011;11653;50.848;4.584;2024-03-06T08:59:30;12.43;;;5.40;;
22973;SDS011;11653;50.848;4.584;2024-03-06T09:01:55;8.70;;;5.03;;
22973;SDS011;11653;50.848;4.584;2024-03-06T09:04:21;8.50;;;4.80;;
22973;SDS011;11653;50.848;4.584;2024-03-06T09:06:47;7.70;;;4.60;;
22973;SDS011;11653;50.848;4.584;2024-03-06T09:09:14;5.90;;;4.47;;
22973;SDS011;11653;50.848;4.584;2024-03-06T09:11:43;8.73;;;4.70;;
22973;SDS011;11653;50.848;4.584;2024-03-06T09:14:09;7.40;;;4.50;;
22973;SDS011;11653;50.848;4.584;2024-03-06T09:16:35;7.53;;;4.50;;
22973;SDS011;11653;50.848;4.584;2024-03-06T09:19:01;8.43;;;5.27;;
22973;SDS011;11653;50.848;4.584;2024-03-06T09:21:27;5.87;;;4.80;;
22973;SDS011;11653;50.848;4.584;2024-03-06T09:23:53;6.30;;;4.50;;
22973;SDS011;11653;50.848;4.584;2024-03-06T09:26:19;8.80;;;4.77;;
22973;SDS011;11653;50.848;4.584;2024-03-06T09:28:45;7.70;;;5.00;;
22973;SDS011;11653;50.848;4.584;2024-03-06T09:31:11;11.57;;;5.40;;
22973;SDS011;11653;50.848;4.584;2024-03-06T09:33:38;10.53;;;4.63;;
22973;SDS011;11653;50.848;4.584;2024-03-06T09:36:05;12.20;;;6.17;;
22973;SDS011;11653;50.848;4.584;2024-03-06T09:38:31;8.00;;;6.20;;
22973;SDS011;11653;50.848;4.584;2024-03-06T09:40:57;14.87;;;7.90;;
22973;SDS011;11653;50.848;4.584;2024-03-06T09:43:22;13.07;;;7.73;;
22973;SDS011;11653;50.848;4.584;2024-03-06T09:45:49;16.27;;;7.78;;
22973;SDS011;11653;50.848;4.584;2024-03-06T09:48:17;23.80;;;12.07;;
22973;SDS011;11653;50.848;4.584;2024-03-06T09:50:46;8.88;;;5.40;;
22973;SDS011;11653;50.848;4.584;2024-03-06T09:53:15;8.27;;;5.30;;
22973;SDS011;11653;50.848;4.584;2024-03-06T09:55:42;7.20;;;4.53;;
22973;SDS011;11653;50.848;4.584;2024-03-06T09:58:08;7.05;;;4.85;;
22973;SDS011;11653;50.848;4.584;2024-03-06T10:00:35;7.75;;;4.60;;
22973;SDS011;11653;50.848;4.584;2024-03-06T10:03:01;8.67;;;4.83;;
22973;SDS011;11653;50.848;4.584;2024-03-06T10:05:31;7.97;;;4.63;;
22973;SDS011;11653;50.848;4.584;2024-03-06T10:08:00;8.63;;;4.97;;
22973;SDS011;11653;50.848;4.584;2024-03-06T10:10:27;6.77;;;4.60;;
22973;SDS011;11653;50.848;4.584;2024-03-06T10:12:52;6.57;;;4.43;;
22973;SDS011;11653;50.848;4.584;2024-03-06T10:15:18;6.50;;;4.43;;
22973;SDS011;11653;50.848;4.584;2024-03-06T10:17:44;6.60;;;4.35;;
22973;SDS011;11653;50.848;4.584;2024-03-06T10:20:23;5.68;;;4.05;;
22973;SDS011;11653;50.848;4.584;2024-03-06T10:22:50;5.65;;;3.67;;
22973;SDS011;11653;50.848;4.584;2024-03-06T10:25:25;6.68;;;4.30;;
22973;SDS011;11653;50.848;4.584;2024-03-06T10:28:06;5.68;;;4.13;;
22973;SDS011;11653;50.848;4.584;2024-03-06T10:30:39;10.25;;;4.60;;
22973;SDS011;11653;50.848;4.584;2024-03-06T10:33:09;7.07;;;4.10;;
22973;SDS011;11653;50.848;4.584;2024-03-06T10:35:36;6.15;;;4.55;;
22973;SDS011;11653;50.848;4.584;2024-03-06T10:38:03;6.93;;;4.20;;
22973;SDS011;11653;50.848;4.584;2024-03-06T10:40:30;6.43;;;4.75;;
22973;SDS011;11653;50.848;4.584;2024-03-06T10:42:59;6.80;;;4.22;;
22973;SDS011;11653;50.848;4.584;2024-03-06T10:48:16;5.57;;;3.70;;
22973;SDS011;11653;50.848;4.584;2024-03-06T10:50:43;5.32;;;3.88;;
22973;SDS011;11653;50.848;4.584;2024-03-06T10:53:10;11.32;;;3.85;;
22973;SDS011;11653;50.848;4.584;2024-03-06T10:55:37;8.15;;;3.80;;
22973;SDS011;11653;50.848;4.584;2024-03-06T10:58:07;10.90;;;4.32;;
22973;SDS011;11653;50.848;4.584;2024-03-06T11:00:37;6.68;;;4.22;;
22973;SDS011;11653;50.848;4.584;2024-03-06T11:03:08;7.22;;;3.80;;
22973;SDS011;11653;50.848;4.584;2024-03-06T11:05:37;5.20;;;3.35;;
22973;SDS011;11653;50.848;4.584;2024-03-06T11:08:06;7.40;;;4.20;;
22973;SDS011;11653;50.848;4.584;2024-03-06T11:10:33;5.63;;;3.35;;
22973;SDS011;11653;50.848;4.584;2024-03-06T11:13:00;5.82;;;3.42;;
22973;SDS011;11653;50.848;4.584;2024-03-06T11:15:28;8.85;;;3.75;;
22973;SDS011;11653;50.848;4.584;2024-03-06T11:17:53;5.90;;;2.90;;
22973;SDS011;11653;50.848;4.584;2024-03-06T11:20:20;6.38;;;2.53;;
22973;SDS011;11653;50.848;4.584;2024-03-06T11:28:16;4.57;;;2.75;;
22973;SDS011;11653;50.848;4.584;2024-03-06T11:33:13;7.03;;;2.70;;
22973;SDS011;11653;50.848;4.584;2024-03-06T11:36:12;6.07;;;3.30;;
22973;SDS011;11653;50.848;4.584;2024-03-06T11:38:38;5.13;;;2.90;;
22973;SDS011;11653;50.848;4.584;2024-03-06T11:41:04;5.75;;;3.03;;
22973;SDS011;11653;50.848;4.584;2024-03-06T11:43:33;4.60;;;2.60;;
22973;SDS011;11653;50.848;4.584;2024-03-06T11:46:11;5.38;;;2.40;;
22973;SDS011;11653;50.848;4.584;2024-03-06T11:48:37;7.38;;;3.20;;
22973;SDS011;11653;50.848;4.584;2024-03-06T11:51:03;6.78;;;3.28;;
22973;SDS011;11653;50.848;4.584;2024-03-06T11:53:32;7.55;;;3.38;;
22973;SDS011;11653;50.848;4.584;2024-03-06T11:56:00;5.75;;;3.08;;
22973;SDS011;11653;50.848;4.584;2024-03-06T11:58:26;5.78;;;3.20;;
22973;SDS011;11653;50.848;4.584;2024-03-06T12:00:52;6.20;;;3.38;;
22973;SDS011;11653;50.848;4.584;2024-03-06T12:03:19;6.47;;;3.47;;
22973;SDS011;11653;50.848;4.584;2024-03-06T12:05:45;4.27;;;2.87;;
22973;SDS011;11653;50.848;4.584;2024-03-06T12:08:15;6.70;;;3.20;;
22973;SDS011;11653;50.848;4.584;2024-03-06T12:10:40;6.23;;;3.30;;
22973;SDS011;11653;50.848;4.584;2024-03-06T12:13:06;5.50;;;3.40;;
22973;SDS011;11653;50.848;4.584;2024-03-06T12:15:32;8.00;;;3.47;;
22973;SDS011;11653;50.848;4.584;2024-03-06T12:17:57;6.07;;;3.10;;
22973;SDS011;11653;50.848;4.584;2024-03-06T12:20:24;4.70;;;3.00;;
22973;SDS011;11653;50.848;4.584;2024-03-06T12:25:22;8.10;;;3.40;;
22973;SDS011;11653;50.848;4.584;2024-03-06T12:27:49;7.23;;;3.60;;
22973;SDS011;11653;50.848;4.584;2024-03-06T12:30:16;5.57;;;3.23;;
22973;SDS011;11653;50.848;4.584;2024-03-06T12:32:57;6.83;;;2.80;;
22973;SDS011;11653;50.848;4.584;2024-03-06T12:35:29;5.73;;;2.87;;
22973;SDS011;11653;50.848;4.584;2024-03-06T12:37:55;4.40;;;2.37;;
22973;SDS011;11653;50.848;4.584;2024-03-06T12:40:21;5.83;;;3.00;;
22973;SDS011;11653;50.848;4.584;2024-03-06T12:42:47;5.07;;;2.17;;
22973;SDS011;11653;50.848;4.584;2024-03-06T12:45:14;6.67;;;2.80;;
22973;SDS011;11653;50.848;4.584;2024-03-06T12:47:41;3.47;;;2.40;;
22973;SDS011;11653;50.848;4.584;2024-03-06T12:50:07;4.20;;;2.53;;
22973;SDS011;11653;50.848;4.584;2024-03-06T12:52:35;5.30;;;2.50;;
22973;SDS011;11653;50.848;4.584;2024-03-06T12:55:02;8.00;;;2.40;;
22973;SDS011;11653;50.848;4.584;2024-03-06T12:57:30;3.27;;;2.07;;
22973;SDS011;11653;50.848;4.584;2024-03-06T12:59:59;4.57;;;2.77;;
22973;SDS011;11653;50.848;4.584;2024-03-06T13:02:25;4.53;;;2.67;;
22973;SDS011;11653;50.848;4.584;2024-03-06T13:04:51;5.73;;;2.40;;
22973;SDS011;11653;50.848;4.584;2024-03-06T13:07:17;9.73;;;2.50;;
22973;SDS011;11653;50.848;4.584;2024-03-06T13:09:43;5.73;;;2.50;;
22973;SDS011;11653;50.848;4.584;2024-03-06T13:12:09;3.80;;;2.33;;
22973;SDS011;11653;50.848;4.584;2024-03-06T13:14:35;7.00;;;2.17;;
22973;SDS011;11653;50.848;4.584;2024-03-06T13:17:01;5.00;;;2.40;;
22973;SDS011;11653;50.848;4.584;2024-03-06T13:19:27;5.97;;;2.80;;
22973;SDS011;11653;50.848;4.584;2024-03-06T13:21:53;4.73;;;2.30;;
22973;SDS011;11653;50.848;4.584;2024-03-06T13:24:19;3.50;;;1.90;;
22973;SDS011;11653;50.848;4.584;2024-03-06T13:26:48;3.87;;;1.83;;
22973;SDS011;11653;50.848;4.584;2024-03-06T13:29:13;6.67;;;2.50;;
22973;SDS011;11653;50.848;4.584;2024-03-06T13:31:39;7.63;;;2.27;;
22973;SDS011;11653;50.848;4.584;2024-03-06T13:34:05;4.57;;;2.20;;
22973;SDS011;11653;50.848;4.584;2024-03-06T13:36:31;4.97;;;2.17;;
22973;SDS011;11653;50.848;4.584;2024-03-06T13:38:57;3.97;;;1.90;;
22973;SDS011;11653;50.848;4.584;2024-03-06T13:41:23;2.57;;;1.63;;
22973;SDS011;11653;50.848;4.584;2024-03-06T13:43:49;4.50;;;2.03;;
22973;SDS011;11653;50.848;4.584;2024-03-06T13:46:15;4.50;;;1.77;;
22973;SDS011;11653;50.848;4.584;2024-03-06T13:48:40;1.77;;;1.30;;
22973;SDS011;11653;50.848;4.584;2024-03-06T13:51:06;3.90;;;2.10;;
22973;SDS011;11653;50.848;4.584;2024-03-06T13:53:32;3.40;;;1.90;;
22973;SDS011;11653;50.848;4.584;2024-03-06T13:55:58;6.70;;;2.53;;
22973;SDS011;11653;50.848;4.584;2024-03-06T13:58:24;4.50;;;2.23;;
22973;SDS011;11653;50.848;4.584;2024-03-06T14:00:51;7.03;;;2.80;;
22973;SDS011;11653;50.848;4.584;2024-03-06T14:03:17;4.27;;;1.90;;
22973;SDS011;11653;50.848;4.584;2024-03-06T14:05:42;3.73;;;1.93;;
22973;SDS011;11653;50.848;4.584;2024-03-06T14:08:08;7.47;;;2.20;;
22973;SDS011;11653;50.848;4.584;2024-03-06T14:10:37;4.60;;;2.00;;
22973;SDS011;11653;50.848;4.584;2024-03-06T14:13:05;6.77;;;2.57;;
22973;SDS011;11653;50.848;4.584;2024-03-06T14:15:32;4.43;;;2.03;;
22973;SDS011;11653;50.848;4.584;2024-03-06T14:17:58;3.63;;;2.03;;
22973;SDS011;11653;50.848;4.584;2024-03-06T14:20:23;4.70;;;2.60;;
22973;SDS011;11653;50.848;4.584;2024-03-06T14:22:49;3.27;;;2.17;;
22973;SDS011;11653;50.848;4.584;2024-03-06T14:25:15;4.43;;;2.30;;
22973;SDS011;11653;50.848;4.584;2024-03-06T14:27:41;3.23;;;2.03;;
22973;SDS011;11653;50.848;4.584;2024-03-06T14:30:07;2.83;;;2.00;;
22973;SDS011;11653;50.848;4.584;2024-03-06T14:32:33;6.47;;;2.40;;
22973;SDS011;11653;50.848;4.584;2024-03-06T14:34:59;8.20;;;2.53;;
22973;SDS011;11653;50.848;4.584;2024-03-06T14:37:24;5.43;;;2.47;;
22973;SDS011;11653;50.848;4.584;2024-03-06T14:39:50;4.23;;;2.40;;
22973;SDS011;11653;50.848;4.584;2024-03-06T14:42:16;5.17;;;2.37;;
22973;SDS011;11653;50.848;4.584;2024-03-06T14:44:42;5.23;;;2.60;;